createdAt,value
2022-11-15T00:01:18.748Z,10.50
2022-11-15T00:03:47.409Z,10.50
2022-11-15T00:06:15.572Z,10.50
2022-11-15T00:08:43.567Z,10.50
2022-11-15T00:11:13.885Z,10.60
2022-11-15T00:13:43.336Z,10.60
2022-11-15T00:16:12.528Z,10.60
2022-11-15T00:18:40.656Z,10.60
2022-11-15T00:21:10.046Z,10.60
2022-11-15T00:23:38.286Z,10.60
2022-11-15T00:26:06.721Z,10.60
2022-11-15T00:28:34.727Z,10.50
2022-11-15T00:31:04.838Z,10.50
2022-11-15T00:33:33.414Z,10.50
2022-11-15T00:36:03.312Z,10.50
2022-11-15T00:38:34.071Z,10.50
2022-11-15T00:41:07.923Z,10.50
2022-11-15T00:43:37.744Z,10.50
2022-11-15T00:46:09.158Z,10.50
2022-11-15T00:48:37.183Z,10.50
2022-11-15T00:51:05.334Z,10.50
2022-11-15T00:53:33.639Z,10.50
2022-11-15T00:56:01.875Z,10.50
2022-11-15T00:58:29.909Z,10.50
2022-11-15T01:00:58.221Z,10.60
2022-11-15T01:03:27.735Z,10.50
2022-11-15T01:05:55.901Z,10.50
2022-11-15T01:08:23.896Z,10.60
2022-11-15T01:10:51.902Z,10.60
2022-11-15T01:13:19.925Z,10.50
2022-11-15T01:15:47.979Z,10.50
2022-11-15T01:18:15.984Z,10.50
2022-11-15T01:20:45.629Z,10.50
2022-11-15T01:23:13.640Z,10.50
2022-11-15T01:25:41.675Z,10.50
2022-11-15T01:28:09.742Z,10.40
2022-11-15T01:30:38.529Z,10.40
2022-11-15T01:33:06.573Z,10.40
2022-11-15T01:35:34.662Z,10.40
2022-11-15T01:38:04.069Z,10.40
2022-11-15T01:40:32.127Z,10.40
2022-11-15T01:43:00.146Z,10.40
2022-11-15T01:45:28.735Z,10.30
2022-11-15T01:47:57.547Z,10.30
2022-11-15T01:50:29.129Z,10.30
2022-11-15T01:52:57.518Z,10.30
2022-11-15T01:55:29.561Z,10.30
2022-11-15T01:58:01.867Z,10.30
2022-11-15T02:00:31.203Z,10.20
2022-11-15T02:02:59.555Z,10.20
2022-11-15T02:05:28.285Z,10.20
2022-11-15T02:07:56.844Z,10.30
2022-11-15T02:10:27.438Z,10.30
2022-11-15T02:12:56.966Z,10.30
2022-11-15T02:15:29.926Z,10.40
2022-11-15T02:18:12.628Z,10.40
2022-11-15T02:20:57.487Z,10.40
2022-11-15T02:23:58.255Z,10.40
2022-11-15T02:26:58.087Z,10.40
2022-11-15T02:29:38.863Z,10.40
2022-11-15T02:32:15.870Z,10.40
2022-11-15T02:34:56.998Z,10.50
2022-11-15T02:37:33.034Z,10.50
2022-11-15T02:40:09.828Z,10.40
2022-11-15T02:43:00.385Z,10.50
2022-11-15T02:45:33.568Z,10.40
2022-11-15T02:48:04.294Z,10.40
2022-11-15T02:50:34.813Z,10.40
2022-11-15T02:53:02.988Z,10.40
2022-11-15T02:55:33.054Z,10.40
2022-11-15T02:58:18.034Z,10.40
2022-11-15T03:00:53.176Z,10.40
2022-11-15T03:03:43.766Z,10.40
2022-11-15T03:06:22.235Z,10.40
2022-11-15T03:08:57.836Z,10.40
2022-11-15T03:11:26.436Z,10.40
2022-11-15T03:13:59.715Z,10.40
2022-11-15T03:16:33.849Z,10.40
2022-11-15T03:19:07.771Z,10.40
2022-11-15T03:21:39.291Z,10.40
2022-11-15T03:24:09.726Z,10.40
2022-11-15T03:26:41.437Z,10.40
2022-11-15T03:29:15.112Z,10.40
2022-11-15T03:31:51.376Z,10.50
2022-11-15T03:34:28.516Z,10.50
2022-11-15T03:36:56.605Z,10.50
2022-11-15T03:39:26.953Z,10.50
2022-11-15T03:42:03.689Z,10.50
2022-11-15T03:44:41.047Z,10.50
2022-11-15T03:47:13.651Z,10.50
2022-11-15T03:49:46.790Z,10.50
2022-11-15T03:52:15.149Z,10.50
2022-11-15T03:54:51.540Z,10.50
2022-11-15T03:57:19.642Z,10.50
2022-11-15T03:59:47.769Z,10.50
2022-11-15T04:02:16.316Z,10.50
2022-11-15T04:04:45.806Z,10.50
2022-11-15T04:07:13.999Z,10.60
2022-11-15T04:09:56.133Z,10.60
2022-11-15T04:12:31.851Z,10.60
2022-11-15T04:15:10.382Z,10.60
2022-11-15T04:17:40.428Z,10.60
2022-11-15T04:20:29.889Z,10.60
2022-11-15T04:23:16.458Z,10.70
2022-11-15T04:25:45.654Z,10.70
2022-11-15T04:28:14.106Z,10.70
2022-11-15T04:30:42.182Z,10.70
2022-11-15T04:33:10.321Z,10.70
2022-11-15T04:35:39.925Z,10.80
2022-11-15T04:38:09.451Z,10.80
2022-11-15T04:40:38.088Z,10.80
2022-11-15T04:43:06.699Z,10.90
2022-11-15T04:45:34.726Z,10.90
2022-11-15T04:48:02.785Z,10.90
2022-11-15T04:50:30.802Z,10.80
2022-11-15T04:53:00.194Z,10.90
2022-11-15T04:55:28.211Z,10.90
2022-11-15T04:58:03.252Z,10.90
2022-11-15T05:00:31.823Z,10.90
2022-11-15T05:03:17.613Z,10.90
2022-11-15T05:05:45.628Z,10.80
2022-11-15T05:08:15.043Z,10.80
2022-11-15T05:10:43.052Z,10.80
2022-11-15T05:13:11.118Z,10.80
2022-11-15T05:15:39.138Z,10.80
2022-11-15T05:18:07.215Z,10.80
2022-11-15T05:20:35.212Z,10.80
2022-11-15T05:23:03.277Z,10.80
2022-11-15T05:25:32.715Z,10.80
2022-11-15T05:28:00.735Z,10.80
2022-11-15T05:30:28.762Z,10.80
2022-11-15T05:32:56.839Z,10.80
2022-11-15T05:35:31.555Z,10.70
2022-11-15T05:37:59.884Z,10.70
2022-11-15T05:40:28.541Z,10.70
2022-11-15T05:42:58.795Z,10.60
2022-11-15T05:45:27.286Z,10.60
2022-11-15T05:47:57.634Z,10.50
2022-11-15T05:50:25.807Z,10.30
2022-11-15T05:52:54.187Z,10.30
2022-11-15T05:55:22.529Z,10.20
2022-11-15T05:57:50.676Z,10.20
2022-11-15T06:00:20.827Z,10.10
2022-11-15T06:02:48.825Z,10.10
2022-11-15T06:05:17.029Z,10.00
2022-11-15T06:07:45.247Z,10.00
2022-11-15T06:10:13.699Z,10.00
2022-11-15T06:12:41.731Z,10.00
2022-11-15T06:15:10.806Z,10.00
2022-11-15T06:17:40.207Z,10.00
2022-11-15T06:20:09.052Z,9.90
2022-11-15T06:22:37.062Z,9.80
2022-11-15T06:25:05.968Z,9.80
2022-11-15T06:27:34.115Z,9.70
2022-11-15T06:30:02.244Z,9.60
2022-11-15T06:32:31.571Z,9.60
2022-11-15T06:35:00.978Z,9.60
2022-11-15T06:37:28.980Z,9.60
2022-11-15T06:39:57.011Z,9.60
2022-11-15T06:42:25.050Z,9.60
2022-11-15T06:44:53.060Z,9.50
2022-11-15T06:47:21.082Z,9.50
2022-11-15T06:49:49.132Z,9.50
2022-11-15T06:52:19.468Z,9.50
2022-11-15T06:54:47.660Z,9.50
2022-11-15T06:57:15.707Z,9.50
2022-11-15T06:59:44.006Z,9.40
2022-11-15T07:02:15.529Z,9.40
2022-11-15T07:04:43.629Z,9.40
2022-11-15T07:07:12.138Z,9.40
2022-11-15T07:09:41.549Z,9.40
2022-11-15T07:12:09.594Z,9.50
2022-11-15T07:14:37.624Z,9.50
2022-11-15T07:17:06.780Z,9.60
2022-11-15T07:19:34.819Z,9.60
2022-11-15T07:22:02.883Z,9.70
2022-11-15T07:24:31.115Z,9.80
2022-11-15T07:27:00.600Z,9.80
2022-11-15T07:29:29.023Z,9.90
2022-11-15T07:31:57.367Z,10.00
2022-11-15T07:34:25.811Z,10.00
2022-11-15T07:36:53.904Z,10.10
2022-11-15T07:39:21.906Z,10.20
2022-11-15T07:41:50.534Z,10.30
2022-11-15T07:44:19.895Z,10.30
2022-11-15T07:46:47.994Z,10.30
2022-11-15T07:49:15.983Z,10.30
2022-11-15T07:51:44.022Z,10.30
2022-11-15T07:54:12.006Z,10.30
2022-11-15T07:56:40.155Z,10.30
2022-11-15T07:59:08.153Z,10.30
2022-11-15T08:01:37.604Z,10.40
2022-11-15T08:04:05.867Z,10.40
2022-11-15T08:06:33.912Z,10.50
2022-11-15T08:09:02.159Z,10.60
2022-11-15T08:11:30.273Z,10.60
2022-11-15T08:13:58.467Z,10.70
2022-11-15T08:16:26.493Z,10.70
2022-11-15T08:18:55.861Z,10.80
2022-11-15T08:21:25.149Z,10.90
2022-11-15T08:23:53.169Z,11.00
2022-11-15T08:26:21.324Z,11.10
2022-11-15T08:28:49.301Z,11.20
2022-11-15T08:31:19.615Z,11.30
2022-11-15T08:33:47.909Z,11.30
2022-11-15T08:36:19.077Z,11.40
2022-11-15T08:38:47.150Z,11.40
2022-11-15T08:41:18.875Z,11.40
2022-11-15T08:43:46.938Z,11.40
2022-11-15T08:46:15.872Z,11.40
2022-11-15T08:48:43.878Z,11.30
2022-11-15T08:51:11.934Z,11.30
2022-11-15T08:53:41.454Z,11.30
2022-11-15T08:56:10.128Z,11.40
2022-11-15T08:58:38.731Z,11.60
2022-11-15T09:01:07.467Z,11.80
2022-11-15T09:03:35.672Z,11.90
2022-11-15T09:06:03.845Z,11.90
2022-11-15T09:08:47.053Z,11.90
2022-11-15T09:11:21.095Z,11.80
2022-11-15T09:13:49.120Z,11.90
2022-11-15T09:16:17.296Z,11.90
2022-11-15T09:18:45.542Z,12.00
2022-11-15T09:21:13.678Z,12.10
2022-11-15T09:23:41.847Z,12.30
2022-11-15T09:26:10.372Z,12.30
2022-11-15T09:28:42.745Z,12.30
2022-11-15T09:31:10.897Z,12.40
2022-11-15T09:33:39.205Z,12.40
2022-11-15T09:36:09.511Z,12.50
2022-11-15T09:38:37.892Z,12.50
2022-11-15T09:41:41.040Z,12.40
2022-11-15T09:44:30.009Z,12.30
2022-11-15T09:47:05.201Z,12.30
2022-11-15T09:49:33.941Z,12.20
2022-11-15T09:52:02.712Z,12.20
2022-11-15T09:57:25.274Z,12.20
2022-11-15T10:00:23.942Z,12.30
2022-11-15T10:03:11.492Z,12.40
2022-11-15T10:05:42.878Z,12.40
2022-11-15T10:08:33.991Z,12.50
2022-11-15T10:11:35.549Z,12.60
2022-11-15T10:13:57.400Z,12.60
2022-11-15T10:17:01.922Z,12.70
2022-11-15T10:19:36.335Z,12.80
2022-11-15T10:22:20.999Z,12.90
2022-11-15T10:24:49.597Z,12.90
2022-11-15T10:27:19.706Z,13.00
2022-11-15T10:29:50.361Z,13.10
2022-11-15T10:32:22.228Z,13.30
2022-11-15T10:34:51.629Z,13.30
2022-11-15T10:37:30.472Z,13.30
2022-11-15T10:40:09.328Z,13.40
2022-11-15T10:42:37.443Z,13.30
2022-11-15T10:45:26.436Z,13.30
2022-11-15T10:47:56.102Z,13.20
2022-11-15T10:50:31.042Z,13.20
2022-11-15T10:52:59.574Z,13.00
2022-11-15T10:55:30.553Z,13.00
2022-11-15T10:58:04.561Z,12.90
2022-11-15T11:00:36.167Z,12.90
2022-11-15T11:03:09.014Z,12.80
2022-11-15T11:05:42.386Z,12.80
2022-11-15T11:08:25.185Z,12.80
2022-11-15T11:11:02.816Z,13.00
2022-11-15T11:13:34.753Z,13.20
2022-11-15T11:16:19.453Z,13.30
2022-11-15T11:18:57.779Z,13.30
2022-11-15T11:21:40.015Z,13.20
2022-11-15T11:24:15.869Z,13.20
2022-11-15T11:26:56.687Z,13.10
2022-11-15T11:29:39.215Z,13.30
2022-11-15T11:32:24.787Z,13.40
2022-11-15T11:35:04.182Z,13.40
2022-11-15T11:37:39.133Z,13.50
2022-11-15T11:40:21.633Z,13.50
2022-11-15T11:43:00.219Z,13.60
2022-11-15T11:45:47.422Z,13.50
2022-11-15T11:48:17.081Z,13.50
2022-11-15T11:50:47.747Z,13.50
2022-11-15T11:53:25.740Z,13.50
2022-11-15T11:55:56.473Z,13.50
2022-11-15T11:58:33.234Z,13.50
2022-11-15T12:01:13.045Z,13.60
2022-11-15T12:03:45.299Z,13.60
2022-11-15T12:06:25.593Z,13.70
2022-11-15T12:09:00.202Z,13.60
2022-11-15T12:11:32.763Z,13.70
2022-11-15T12:14:03.555Z,13.70
2022-11-15T12:16:33.666Z,13.70
2022-11-15T12:19:03.432Z,13.70
2022-11-15T12:21:41.476Z,13.80
2022-11-15T12:24:16.154Z,13.80
2022-11-15T12:26:50.783Z,13.90
2022-11-15T12:29:23.975Z,13.90
2022-11-15T12:31:56.616Z,13.90
2022-11-15T12:34:47.076Z,13.90
2022-11-15T12:37:51.867Z,13.90
2022-11-15T12:40:27.093Z,13.90
2022-11-15T12:43:07.126Z,13.90
2022-11-15T12:45:37.749Z,14.00
2022-11-15T12:48:57.691Z,14.00
2022-11-15T12:52:04.460Z,14.00
2022-11-15T12:55:00.632Z,13.90
2022-11-15T12:57:43.505Z,13.80
2022-11-15T13:00:39.524Z,13.80
2022-11-15T13:03:28.658Z,13.80
2022-11-15T13:06:10.560Z,13.80
2022-11-15T13:08:57.532Z,13.80
2022-11-15T13:11:49.144Z,13.80
2022-11-15T13:14:47.790Z,13.90
2022-11-15T13:17:41.220Z,13.90
2022-11-15T13:20:22.724Z,13.80
2022-11-15T13:22:57.519Z,13.80
2022-11-15T13:25:53.015Z,13.80
2022-11-15T13:28:26.680Z,13.70
2022-11-15T13:30:58.105Z,13.60
2022-11-15T13:33:31.672Z,13.60
2022-11-15T13:36:06.334Z,13.60
2022-11-15T13:38:36.041Z,13.60
2022-11-15T13:41:19.758Z,13.60
2022-11-15T13:43:48.363Z,13.60
2022-11-15T13:46:19.841Z,13.60
2022-11-15T13:48:49.129Z,13.50
2022-11-15T13:51:22.879Z,13.40
2022-11-15T13:53:54.116Z,13.40
2022-11-15T13:56:22.987Z,13.30
2022-11-15T13:58:51.304Z,13.30
2022-11-15T14:01:22.488Z,13.30
2022-11-15T14:03:54.781Z,13.30
2022-11-15T14:06:25.392Z,13.40
2022-11-15T14:09:03.551Z,13.40
2022-11-15T14:11:31.732Z,13.40
2022-11-15T14:14:14.342Z,13.40
2022-11-15T14:16:45.629Z,13.30
2022-11-15T14:19:34.723Z,13.40
2022-11-15T14:22:18.975Z,13.30
2022-11-15T14:24:48.889Z,13.30
2022-11-15T14:27:25.626Z,13.20
2022-11-15T14:29:54.244Z,13.20
2022-11-15T14:32:26.007Z,13.30
2022-11-15T14:34:58.030Z,13.20
2022-11-15T14:37:28.206Z,13.20
2022-11-15T14:39:57.060Z,13.20
2022-11-15T14:42:25.803Z,13.20
2022-11-15T14:44:53.970Z,13.20
2022-11-15T14:47:23.425Z,13.20
2022-11-15T14:49:51.527Z,13.20
2022-11-15T14:52:32.239Z,13.20
2022-11-15T14:55:02.462Z,13.20
2022-11-15T14:57:31.065Z,13.20
2022-11-15T14:59:59.238Z,13.20
2022-11-15T15:02:29.625Z,13.10
2022-11-15T15:05:02.011Z,13.10
2022-11-15T15:07:30.262Z,13.10
2022-11-15T15:10:24.635Z,13.00
2022-11-15T15:12:46.571Z,13.00
2022-11-15T15:15:17.269Z,13.00
2022-11-15T15:17:46.776Z,12.90
2022-11-15T15:20:14.958Z,12.90
2022-11-15T15:22:43.022Z,12.90
2022-11-15T15:25:23.385Z,12.90
2022-11-15T15:27:51.707Z,12.90
2022-11-15T15:30:19.921Z,12.90
2022-11-15T15:32:49.427Z,12.90
2022-11-15T15:35:18.638Z,12.90
2022-11-15T15:37:48.090Z,12.90
2022-11-15T15:40:18.858Z,12.90
2022-11-15T15:42:46.902Z,12.90
2022-11-15T15:45:15.906Z,12.80
2022-11-15T15:47:44.497Z,12.80
2022-11-15T15:50:23.497Z,12.80
2022-11-15T15:52:51.881Z,12.80
2022-11-15T15:55:20.169Z,12.70
2022-11-15T15:57:48.451Z,12.70
2022-11-15T16:00:17.141Z,12.70
2022-11-15T16:02:45.471Z,12.60
2022-11-15T16:05:14.727Z,12.50
2022-11-15T16:07:45.161Z,12.50
2022-11-15T16:10:21.505Z,12.40
2022-11-15T16:12:50.338Z,12.40
2022-11-15T16:15:18.690Z,12.40
2022-11-15T16:17:50.117Z,12.40
2022-11-15T16:20:36.638Z,12.40
2022-11-15T16:23:09.617Z,12.40
2022-11-15T16:25:43.353Z,12.40
2022-11-15T16:28:20.871Z,12.40
2022-11-15T16:30:53.910Z,12.40
2022-11-15T16:33:25.297Z,12.40
2022-11-15T16:35:53.439Z,12.40
2022-11-15T16:38:22.949Z,12.40
2022-11-15T16:40:50.971Z,12.40
2022-11-15T16:43:19.140Z,12.40
2022-11-15T16:45:47.433Z,12.40
2022-11-15T16:48:25.271Z,12.40
2022-11-15T16:50:57.569Z,12.40
2022-11-15T16:53:27.976Z,12.40
2022-11-15T16:55:56.806Z,12.40
2022-11-15T16:58:25.440Z,12.40
2022-11-15T17:00:54.318Z,12.40
2022-11-15T17:03:22.697Z,12.40
2022-11-15T17:05:50.947Z,12.50
2022-11-15T17:08:20.880Z,12.50
2022-11-15T17:10:50.423Z,12.50
2022-11-15T17:13:18.510Z,12.60
2022-11-15T17:15:46.520Z,12.60
2022-11-15T17:18:15.669Z,12.50
2022-11-15T17:20:44.869Z,12.50
2022-11-15T17:23:15.433Z,12.60
2022-11-15T17:25:43.805Z,12.60
2022-11-15T17:28:13.214Z,12.60
2022-11-15T17:30:43.223Z,12.50
2022-11-15T17:33:11.302Z,12.50
2022-11-15T17:35:39.338Z,12.60
2022-11-15T17:38:07.389Z,12.60
2022-11-15T17:40:35.415Z,12.60
2022-11-15T17:43:03.675Z,12.60
2022-11-15T17:45:33.025Z,12.60
2022-11-15T17:48:01.050Z,12.60
2022-11-15T17:50:29.034Z,12.60
2022-11-15T17:52:57.358Z,12.60
2022-11-15T17:55:25.370Z,12.60
2022-11-15T17:57:53.391Z,12.50
2022-11-15T18:00:21.816Z,12.60
2022-11-15T18:02:51.209Z,12.60
2022-11-15T18:05:19.253Z,12.60
2022-11-15T18:07:47.252Z,12.60
2022-11-15T18:10:15.339Z,12.60
2022-11-15T18:12:43.343Z,12.50
2022-11-15T18:15:11.518Z,12.50
2022-11-15T18:17:39.561Z,12.40
2022-11-15T18:20:10.142Z,12.40
2022-11-15T18:22:38.155Z,12.30
2022-11-15T18:25:06.950Z,12.30
2022-11-15T18:27:35.134Z,12.20
2022-11-15T18:30:03.174Z,12.10
2022-11-15T18:32:31.165Z,12.10
2022-11-15T18:34:59.219Z,12.10
2022-11-15T18:37:28.612Z,12.10
2022-11-15T18:39:56.715Z,12.00
2022-11-15T18:42:24.761Z,12.10
2022-11-15T18:44:52.966Z,12.10
2022-11-15T18:47:20.983Z,12.10
2022-11-15T18:49:49.024Z,12.10
2022-11-15T18:52:17.053Z,12.10
2022-11-15T18:54:46.438Z,12.10
2022-11-15T18:57:14.445Z,12.10
2022-11-15T18:59:42.467Z,12.10
2022-11-15T19:02:13.213Z,12.10
2022-11-15T19:04:41.310Z,12.10
2022-11-15T19:07:09.362Z,12.10
2022-11-15T19:09:38.739Z,12.00
2022-11-15T19:12:08.510Z,12.00
2022-11-15T19:14:36.524Z,12.00
2022-11-15T19:17:04.640Z,12.00
2022-11-15T19:19:32.990Z,12.00
2022-11-15T19:22:02.343Z,12.00
2022-11-15T19:24:30.528Z,12.00
2022-11-15T19:26:58.542Z,12.00
2022-11-15T19:29:27.914Z,12.00
2022-11-15T19:31:55.929Z,12.00
2022-11-15T19:34:23.912Z,12.00
2022-11-15T19:36:51.952Z,12.00
2022-11-15T19:39:19.967Z,12.00
2022-11-15T19:41:48.286Z,12.00
2022-11-15T19:44:16.563Z,12.10
2022-11-15T19:46:45.961Z,12.10
2022-11-15T19:49:14.268Z,12.00
2022-11-15T19:51:45.124Z,12.00
2022-11-15T19:54:13.651Z,12.00
2022-11-15T19:56:41.703Z,12.00
2022-11-15T19:59:11.597Z,11.90
2022-11-15T20:01:39.967Z,12.00
2022-11-15T20:04:10.204Z,12.00
2022-11-15T20:06:40.400Z,12.00
2022-11-15T20:09:09.001Z,12.00
2022-11-15T20:11:38.161Z,12.00
2022-11-15T20:14:08.932Z,12.00
2022-11-15T20:16:37.500Z,12.00
2022-11-15T20:19:05.981Z,12.00
2022-11-15T20:21:35.740Z,11.90
2022-11-15T20:24:03.746Z,11.90
2022-11-15T20:26:32.314Z,11.90
2022-11-15T20:29:03.181Z,11.90
2022-11-15T20:31:31.939Z,11.90
2022-11-15T20:33:59.957Z,11.90
2022-11-15T20:36:28.311Z,11.90
2022-11-15T20:39:00.224Z,11.90
2022-11-15T20:41:28.994Z,11.90
2022-11-15T20:43:57.053Z,12.00
2022-11-15T20:46:25.317Z,12.00
2022-11-15T20:48:53.429Z,12.00
2022-11-15T20:51:21.766Z,12.00
2022-11-15T20:53:50.410Z,12.00
2022-11-15T20:56:21.841Z,12.00
2022-11-15T20:58:51.223Z,12.00
2022-11-15T21:01:24.376Z,12.00
2022-11-15T21:03:53.246Z,12.00
2022-11-15T21:06:21.783Z,12.00
2022-11-15T21:09:07.884Z,12.00
2022-11-15T21:11:54.960Z,11.90
2022-11-15T21:14:22.982Z,12.00
2022-11-15T21:16:51.151Z,12.00
2022-11-15T21:19:23.873Z,12.00
2022-11-15T21:21:55.286Z,12.00
2022-11-15T21:24:24.638Z,12.00
2022-11-15T21:26:54.928Z,12.00
2022-11-15T21:29:22.964Z,12.00
2022-11-15T21:31:52.889Z,12.00
2022-11-15T21:34:21.612Z,12.00
2022-11-15T21:36:49.710Z,12.00
2022-11-15T21:39:17.730Z,12.00
2022-11-15T21:41:45.852Z,12.00
2022-11-15T21:44:15.212Z,12.00
2022-11-15T21:46:43.605Z,12.10
2022-11-15T21:49:11.875Z,12.10
2022-11-15T21:51:39.977Z,12.10
2022-11-15T21:54:08.303Z,12.10
2022-11-15T21:56:36.846Z,12.10
2022-11-15T21:59:04.914Z,12.20
2022-11-15T22:01:51.882Z,12.10
2022-11-15T22:04:21.470Z,12.20
2022-11-15T22:06:49.495Z,12.10
2022-11-15T22:09:17.582Z,12.10
2022-11-15T22:11:45.634Z,12.10
2022-11-15T22:14:13.731Z,12.10
2022-11-15T22:16:43.067Z,12.10
2022-11-15T22:19:11.157Z,12.10
2022-11-15T22:21:40.069Z,12.10
2022-11-15T22:24:08.682Z,12.10
2022-11-15T22:26:36.857Z,12.10
2022-11-15T22:29:04.972Z,12.10
2022-11-15T22:31:33.033Z,12.10
2022-11-15T22:34:02.474Z,12.10
2022-11-15T22:36:46.829Z,12.10
2022-11-15T22:39:18.855Z,12.10
2022-11-15T22:41:46.924Z,12.10
2022-11-15T22:44:15.006Z,12.10
2022-11-15T22:46:43.043Z,12.10
2022-11-15T22:49:12.586Z,12.10
2022-11-15T22:51:40.723Z,12.10
2022-11-15T22:54:08.973Z,12.10
2022-11-15T22:56:37.035Z,12.10
2022-11-15T22:59:05.112Z,12.10
2022-11-15T23:01:33.171Z,12.20
2022-11-15T23:04:01.306Z,12.20
2022-11-15T23:06:30.929Z,12.20
2022-11-15T23:08:59.091Z,12.10
2022-11-15T23:11:44.444Z,12.20
2022-11-15T23:14:12.761Z,12.10
2022-11-15T23:16:40.854Z,12.10
2022-11-15T23:19:11.784Z,12.00
2022-11-15T23:22:00.006Z,12.10
2022-11-15T23:24:28.617Z,12.00
2022-11-15T23:26:58.795Z,12.00
2022-11-15T23:29:28.799Z,11.90
2022-11-15T23:32:15.266Z,12.00
2022-11-15T23:34:45.540Z,11.90
2022-11-15T23:37:16.490Z,11.90
2022-11-15T23:39:44.560Z,11.80
2022-11-15T23:42:19.717Z,11.80
2022-11-15T23:44:50.084Z,11.80
2022-11-15T23:47:18.203Z,11.80
2022-11-15T23:49:46.281Z,11.70
2022-11-15T23:52:16.528Z,11.70
2022-11-15T23:54:44.708Z,11.70
2022-11-15T23:57:12.826Z,11.70
2022-11-15T23:59:43.429Z,11.60
